Amherst Junction, Wisconsin
Current Conditions -  °F | °C
As of 6:35 PM on Monday 24 Nov 2014 (Local Time) from KSTE Reporting Station
Unknown Precip Unknown Precip  
Wind Chill: -8°   Ceiling: 1400
Heat Index: -4°   Visibility: 1.2mi
Dew Point: -5°   Wind: 7mph
Humidity: 94%   Direction: 330°NNW
Pressure: 29.5"   Gusts: NA
Location:  44.47°N, 89.31°W
Report Text: KSTE 250035Z AUTO 33006KT 1 1/4SM UP SCT006 OVC014 M04/M05 A2950 RMK AO2 T10391048
Loading
Personal Weather Stations






























Interactive Weather Map New forecast layout! Learn more

10-Day Weather Forecast

Advertisements
Track Severe Weather on mobile